Time;durP1;ratioP1;P1;durP2;ratioP2;P2;SDS_P1;SDS_P2;PMS_P1;PMS_P2;Temp;Humidity;BMP_temperature;BMP_pressure;BME280_temperature;BME280_humidity;BME280_pressure;Samples;Min_cycle;Max_cycle;Signal;HPM_P1;HPM_P2
2021/10/14 00:02:10;;;;;;;0.80;0.30;;;14.60;96.00;;;;;;5092268;27;20047;-87
2021/10/14 00:04:38;;;;;;;0.68;0.40;;;14.40;96.70;;;;;;5082191;28;20130;-87
2021/10/14 00:07:07;;;;;;;1.95;0.40;;;14.50;96.70;;;;;;5087614;27;20043;-86
2021/10/14 00:09:35;;;;;;;0.52;0.35;;;14.40;96.70;;;;;;5095104;28;20035;-86
2021/10/14 00:12:03;;;;;;;3.65;0.38;;;14.20;96.70;;;;;;5099887;27;20091;-87
2021/10/14 00:14:34;;;;;;;1.40;0.40;;;14.10;96.70;;;;;;5101061;28;20058;-87
2021/10/14 00:17:03;;;;;;;3.40;0.50;;;14.20;96.70;;;;;;5092258;28;20114;-87
2021/10/14 00:19:33;;;;;;;2.25;0.50;;;14.40;96.70;;;;;;5120818;28;20346;-86
2021/10/14 00:22:01;;;;;;;0.82;0.50;;;14.30;96.70;;;;;;5087148;28;20070;-87
2021/10/14 00:24:29;;;;;;;1.65;0.30;;;14.30;96.70;;;;;;5077844;28;20035;-87
2021/10/14 00:26:58;;;;;;;0.60;0.40;;;14.20;96.70;;;;;;5116414;28;20070;-87
2021/10/14 00:29:26;;;;;;;2.50;0.40;;;14.20;96.70;;;;;;5099328;28;20496;-87
2021/10/14 00:31:54;;;;;;;1.83;0.47;;;14.20;96.70;;;;;;5089925;28;20054;-87
2021/10/14 00:34:22;;;;;;;2.67;0.50;;;14.20;96.70;;;;;;5099998;28;20047;-87
2021/10/14 00:36:52;;;;;;;2.20;0.60;;;14.10;96.70;;;;;;5087868;28;20859;-87
2021/10/14 00:39:20;;;;;;;0.85;0.43;;;14.20;96.70;;;;;;5102318;27;20050;-87
2021/10/14 00:41:48;;;;;;;0.75;0.32;;;14.20;96.70;;;;;;5091273;27;20057;-87
2021/10/14 00:44:16;;;;;;;2.50;0.63;;;14.20;96.70;;;;;;5080005;27;20127;-86
2021/10/14 00:46:56;;;;;;;0.68;0.30;;;14.20;96.70;;;;;;5091797;27;20043;-87
2021/10/14 00:49:24;;;;;;;1.45;0.40;;;14.20;96.70;;;;;;5103135;27;20050;-86
2021/10/14 00:51:54;;;;;;;2.58;0.40;;;14.20;96.70;;;;;;5115046;27;20032;-87
2021/10/14 00:54:22;;;;;;;1.33;0.40;;;14.20;96.70;;;;;;5115243;27;20067;-87
2021/10/14 00:56:50;;;;;;;1.27;0.40;;;14.20;96.70;;;;;;5089933;28;20418;-86
2021/10/14 00:59:19;;;;;;;1.55;0.35;;;14.20;96.70;;;;;;5091058;28;20058;-85
2021/10/14 01:01:48;;;;;;;1.48;0.30;;;14.10;96.70;;;;;;5084881;28;20517;-84
2021/10/14 01:04:16;;;;;;;1.90;0.60;;;14.20;96.70;;;;;;5096767;28;20071;-87
2021/10/14 01:06:45;;;;;;;0.95;0.43;;;14.10;96.70;;;;;;5096034;28;20567;-87
2021/10/14 01:09:15;;;;;;;2.33;0.40;;;14.10;96.70;;;;;;5089885;28;20070;-87
2021/10/14 01:11:43;;;;;;;0.85;0.38;;;14.20;96.70;;;;;;5074626;28;20070;-87
2021/10/14 01:14:11;;;;;;;1.60;0.30;;;14.20;96.70;;;;;;5088542;28;20060;-87
2021/10/14 01:16:40;;;;;;;0.98;0.45;;;14.20;96.70;;;;;;5080661;28;20068;-87
2021/10/14 01:19:09;;;;;;;3.50;0.43;;;14.20;96.70;;;;;;5075630;28;20040;-88
2021/10/14 01:21:40;;;;;;;1.45;0.38;;;14.20;96.70;;;;;;5095927;28;20492;-87
2021/10/14 01:24:10;;;;;;;1.38;0.47;;;14.10;96.70;;;;;;5085451;28;20047;-87
2021/10/14 01:26:39;;;;;;;1.02;0.40;;;14.00;96.70;;;;;;5094851;28;20036;-86
2021/10/14 01:29:08;;;;;;;1.83;0.32;;;13.90;96.70;;;;;;5096495;28;20513;-87
2021/10/14 01:31:37;;;;;;;1.45;0.40;;;13.90;96.70;;;;;;5095899;28;20086;-85
2021/10/14 01:34:05;;;;;;;1.88;0.50;;;14.00;96.70;;;;;;5097337;28;20130;-85
2021/10/14 01:36:33;;;;;;;2.47;0.40;;;14.00;96.70;;;;;;5071990;28;20089;-84
2021/10/14 01:39:03;;;;;;;2.10;0.55;;;14.00;96.70;;;;;;5088140;28;20048;-85
2021/10/14 01:41:32;;;;;;;2.60;0.30;;;14.00;96.70;;;;;;5091256;28;20891;-85
2021/10/14 01:44:00;;;;;;;1.08;0.38;;;13.80;96.70;;;;;;5078121;28;20039;-85
2021/10/14 01:46:28;;;;;;;2.35;0.50;;;13.80;96.70;;;;;;5094949;28;20131;-85
2021/10/14 01:48:56;;;;;;;2.78;0.40;;;13.80;96.70;;;;;;5095786;28;20044;-85
2021/10/14 01:51:24;;;;;;;2.75;0.40;;;13.80;96.70;;;;;;5073358;28;20028;-84
2021/10/14 01:53:52;;;;;;;1.15;0.25;;;13.80;96.70;;;;;;5102586;28;20043;-84
2021/10/14 01:56:22;;;;;;;1.83;0.60;;;13.60;96.70;;;;;;5093502;28;20575;-85
2021/10/14 01:58:50;;;;;;;1.25;0.57;;;13.60;96.70;;;;;;5092662;28;20139;-86
2021/10/14 02:01:18;;;;;;;1.80;0.50;;;13.60;96.70;;;;;;5085316;28;20105;-85
2021/10/14 02:03:47;;;;;;;1.10;0.50;;;13.60;96.70;;;;;;5088240;28;20131;-85
2021/10/14 02:06:15;;;;;;;1.35;0.63;;;13.50;96.70;;;;;;5094875;28;20558;-84
2021/10/14 02:08:43;;;;;;;2.38;0.50;;;13.50;96.70;;;;;;5085105;28;20049;-84
2021/10/14 02:11:12;;;;;;;2.95;0.40;;;13.50;96.70;;;;;;5100345;28;20143;-85
2021/10/14 02:13:42;;;;;;;1.42;0.47;;;13.50;96.70;;;;;;5079373;28;20135;-87
2021/10/14 02:16:10;;;;;;;2.40;0.50;;;13.40;96.70;;;;;;5096596;28;20060;-87
2021/10/14 02:18:39;;;;;;;4.03;0.82;;;13.30;96.70;;;;;;5093554;28;20119;-89
2021/10/14 02:21:08;;;;;;;1.65;0.40;;;13.30;96.70;;;;;;5092175;28;20075;-87
2021/10/14 02:23:37;;;;;;;1.75;0.40;;;13.40;96.70;;;;;;5096333;28;20408;-87
2021/10/14 02:26:05;;;;;;;2.35;0.50;;;13.40;96.70;;;;;;5077709;28;20067;-88
2021/10/14 02:28:33;;;;;;;1.77;0.52;;;13.40;96.70;;;;;;5100049;28;20493;-86
2021/10/14 02:31:03;;;;;;;0.65;0.30;;;13.50;96.70;;;;;;5079427;28;20054;-86
2021/10/14 02:33:31;;;;;;;2.17;0.40;;;13.60;96.70;;;;;;5093871;28;20488;-87
2021/10/14 02:35:59;;;;;;;1.77;0.38;;;13.70;96.70;;;;;;5091872;28;20417;-87
2021/10/14 02:38:27;;;;;;;1.50;0.50;;;13.70;96.70;;;;;;5095437;28;20032;-88
2021/10/14 02:40:56;;;;;;;2.08;0.55;;;13.70;96.70;;;;;;5100224;28;20040;-86
2021/10/14 02:43:24;;;;;;;2.78;0.40;;;13.70;96.70;;;;;;5097503;28;20051;-88
2021/10/14 02:45:52;;;;;;;2.75;0.60;;;13.60;96.70;;;;;;5097705;28;20043;-87
2021/10/14 02:48:22;;;;;;;1.33;0.47;;;13.60;96.70;;;;;;5099304;28;20474;-87
2021/10/14 02:50:50;;;;;;;1.65;0.50;;;13.60;96.70;;;;;;5096521;28;20098;-87
2021/10/14 02:53:19;;;;;;;2.03;0.50;;;13.60;96.70;;;;;;5078756;28;20486;-88
2021/10/14 02:55:47;;;;;;;1.60;0.60;;;13.60;96.70;;;;;;5101281;28;20064;-86
2021/10/14 02:58:15;;;;;;;2.15;0.40;;;13.60;96.70;;;;;;5095509;28;20055;-87
2021/10/14 03:00:44;;;;;;;1.65;0.50;;;13.50;96.70;;;;;;5093093;28;20040;-87
2021/10/14 03:03:12;;;;;;;0.68;0.50;;;13.50;96.70;;;;;;5083576;27;20032;-87
2021/10/14 03:05:42;;;;;;;1.45;0.40;;;13.50;96.70;;;;;;5092768;27;20074;-87
2021/10/14 03:08:10;;;;;;;1.58;0.38;;;13.50;96.70;;;;;;5086615;27;20122;-86
2021/10/14 03:10:39;;;;;;;3.60;0.40;;;13.50;96.70;;;;;;5089722;28;20401;-87
2021/10/14 03:13:07;;;;;;;1.17;0.30;;;13.50;96.70;;;;;;5079778;28;20051;-87
2021/10/14 03:15:36;;;;;;;1.52;0.50;;;13.40;96.70;;;;;;5099813;27;20069;-87
2021/10/14 03:18:05;;;;;;;1.90;0.35;;;13.40;96.70;;;;;;5097781;28;20130;-87
2021/10/14 03:20:33;;;;;;;3.28;0.43;;;13.30;96.70;;;;;;5114113;27;20043;-88
2021/10/14 03:23:03;;;;;;;3.55;0.45;;;13.30;96.70;;;;;;5090326;27;20088;-87
2021/10/14 03:25:31;;;;;;;2.72;0.50;;;13.30;96.70;;;;;;5101709;27;20516;-87
2021/10/14 03:28:00;;;;;;;2.55;0.50;;;13.30;96.70;;;;;;5084970;27;20539;-88
2021/10/14 03:30:28;;;;;;;3.92;0.50;;;13.30;96.70;;;;;;5094691;28;20036;-88
2021/10/14 03:32:56;;;;;;;0.98;0.30;;;13.20;96.70;;;;;;5097218;28;20143;-88
2021/10/14 03:35:25;;;;;;;2.42;0.40;;;13.20;96.70;;;;;;5089420;27;20521;-87
2021/10/14 03:37:53;;;;;;;0.98;0.55;;;13.20;96.70;;;;;;5083038;27;20063;-88
2021/10/14 03:40:23;;;;;;;1.70;0.40;;;13.20;96.70;;;;;;5117951;27;20031;-88
2021/10/14 03:42:51;;;;;;;1.98;0.40;;;13.20;96.70;;;;;;5083387;27;20043;-86
2021/10/14 03:45:19;;;;;;;2.35;0.40;;;13.10;96.70;;;;;;5085169;27;20074;-88
2021/10/14 03:47:48;;;;;;;2.35;0.40;;;13.10;96.70;;;;;;5091598;28;20051;-87
2021/10/14 03:50:16;;;;;;;2.38;0.60;;;13.10;96.70;;;;;;5102802;27;20493;-87
2021/10/14 03:52:44;;;;;;;1.58;0.50;;;13.10;96.70;;;;;;5108628;27;20176;-86
2021/10/14 03:55:13;;;;;;;1.67;0.30;;;13.10;96.70;;;;;;5100440;28;20051;-87
2021/10/14 03:57:43;;;;;;;1.42;0.55;;;13.10;96.70;;;;;;5093484;28;20036;-87
2021/10/14 04:00:12;;;;;;;1.40;0.40;;;13.10;96.70;;;;;;5089104;28;20510;-87
2021/10/14 04:02:40;;;;;;;0.88;0.40;;;13.10;96.70;;;;;;5079429;28;20055;-87
2021/10/14 04:05:10;;;;;;;3.17;0.50;;;13.10;96.70;;;;;;5079490;28;20461;-85
2021/10/14 04:07:38;;;;;;;2.25;0.43;;;13.10;96.70;;;;;;5070478;28;20493;-85
2021/10/14 04:10:07;;;;;;;2.30;0.35;;;13.10;96.70;;;;;;5097873;28;20429;-85
2021/10/14 04:12:36;;;;;;;2.38;0.40;;;13.10;96.70;;;;;;5077603;28;20063;-85
2021/10/14 04:15:08;;;;;;;2.10;0.50;;;13.10;96.70;;;;;;5077467;28;20055;-85
2021/10/14 04:17:37;;;;;;;1.60;0.50;;;13.10;96.70;;;;;;5075153;28;20198;-85
2021/10/14 04:20:06;;;;;;;1.77;0.40;;;13.10;96.70;;;;;;5088232;28;20071;-84
2021/10/14 04:22:34;;;;;;;1.15;0.45;;;13.10;96.70;;;;;;5092193;28;20040;-85
2021/10/14 04:25:04;;;;;;;1.25;0.55;;;13.00;96.70;;;;;;5094836;28;20807;-85
2021/10/14 04:27:32;;;;;;;2.25;0.70;;;13.00;96.70;;;;;;5094233;28;20355;-85
2021/10/14 04:30:00;;;;;;;1.55;0.40;;;13.10;96.70;;;;;;5082899;28;20501;-85
2021/10/14 04:32:30;;;;;;;1.92;0.47;;;13.10;96.70;;;;;;5071852;28;20071;-85
2021/10/14 04:34:59;;;;;;;3.58;0.50;;;13.10;96.70;;;;;;5087124;28;20032;-85
2021/10/14 04:37:27;;;;;;;0.70;0.30;;;13.10;96.70;;;;;;5072237;28;20477;-85
2021/10/14 04:39:55;;;;;;;1.65;0.40;;;13.00;96.70;;;;;;5092636;28;20619;-85
2021/10/14 04:42:24;;;;;;;1.55;0.38;;;13.00;96.70;;;;;;5080363;28;20079;-85
2021/10/14 04:44:52;;;;;;;2.17;0.40;;;13.00;96.70;;;;;;5094488;28;20047;-85
2021/10/14 04:47:20;;;;;;;1.98;0.38;;;13.00;96.70;;;;;;5088325;28;20052;-84
2021/10/14 04:49:50;;;;;;;2.78;0.50;;;13.00;96.70;;;;;;5080975;28;20050;-85
2021/10/14 04:52:18;;;;;;;4.70;0.60;;;13.00;96.70;;;;;;5085068;28;20040;-85
2021/10/14 04:54:46;;;;;;;2.70;0.40;;;13.00;96.70;;;;;;5074376;28;20463;-84
2021/10/14 04:57:15;;;;;;;1.83;0.45;;;12.90;96.70;;;;;;5088956;28;20122;-84
2021/10/14 04:59:43;;;;;;;2.58;0.50;;;13.00;96.70;;;;;;5080778;28;20043;-84
2021/10/14 05:02:11;;;;;;;0.70;0.30;;;13.00;96.70;;;;;;5097217;28;20039;-84
2021/10/14 05:04:39;;;;;;;1.85;0.60;;;12.90;96.70;;;;;;5076809;28;20126;-84
2021/10/14 05:07:09;;;;;;;1.63;0.40;;;12.90;96.70;;;;;;5087534;28;20043;-84
2021/10/14 05:09:38;;;;;;;2.10;0.50;;;12.90;96.70;;;;;;5088492;28;20040;-83
2021/10/14 05:12:06;;;;;;;1.13;0.50;;;12.90;96.70;;;;;;5097106;28;20093;-84
2021/10/14 05:14:35;;;;;;;0.60;0.30;;;12.90;96.70;;;;;;5094919;28;20043;-84
2021/10/14 05:17:03;;;;;;;3.42;0.73;;;12.80;96.70;;;;;;5108854;28;20053;-83
2021/10/14 05:19:31;;;;;;;1.38;0.52;;;12.80;96.70;;;;;;5082292;28;20036;-84
2021/10/14 05:21:59;;;;;;;2.65;0.65;;;12.80;96.70;;;;;;5097687;28;20108;-84
2021/10/14 05:24:29;;;;;;;2.67;0.77;;;12.80;96.70;;;;;;5076519;27;20056;-84
2021/10/14 05:26:57;;;;;;;1.38;0.40;;;12.80;96.70;;;;;;5094706;27;20511;-84
2021/10/14 05:29:25;;;;;;;1.05;0.40;;;12.80;96.70;;;;;;5092328;27;20452;-84
2021/10/14 05:31:54;;;;;;;2.33;0.63;;;12.80;96.70;;;;;;5100171;27;20059;-84
2021/10/14 05:34:22;;;;;;;1.25;0.52;;;12.80;96.70;;;;;;5084332;28;20126;-82
2021/10/14 05:36:50;;;;;;;3.80;0.40;;;12.80;96.70;;;;;;5098937;27;20794;-84
2021/10/14 05:39:20;;;;;;;2.25;0.68;;;12.90;96.70;;;;;;5090086;28;20043;-84
2021/10/14 05:41:50;;;;;;;2.47;0.70;;;12.90;96.70;;;;;;5083396;27;20039;-84
2021/10/14 05:44:18;;;;;;;1.77;1.08;;;12.90;96.70;;;;;;5110519;27;20043;-84
2021/10/14 05:46:46;;;;;;;1.45;0.40;;;12.90;96.70;;;;;;5109992;27;20130;-84
2021/10/14 05:49:15;;;;;;;3.22;0.60;;;12.90;96.70;;;;;;5092471;28;20044;-84
2021/10/14 05:51:43;;;;;;;2.35;0.50;;;13.00;96.70;;;;;;5101179;27;20050;-84
2021/10/14 05:54:11;;;;;;;2.25;0.90;;;13.10;96.70;;;;;;5094402;27;20043;-83
2021/10/14 05:56:40;;;;;;;9.52;1.73;;;13.00;96.70;;;;;;5112700;27;20049;-84
2021/10/14 05:59:09;;;;;;;1.77;0.45;;;13.00;96.70;;;;;;5103629;27;20142;-84
2021/10/14 06:01:37;;;;;;;2.25;0.70;;;13.00;96.70;;;;;;5093170;28;20093;-84
2021/10/14 06:04:06;;;;;;;4.60;0.65;;;13.10;96.70;;;;;;5092016;28;20071;-84
2021/10/14 06:06:34;;;;;;;1.40;0.45;;;13.00;96.70;;;;;;5102716;27;20046;-84
2021/10/14 06:09:04;;;;;;;1.85;0.50;;;13.10;96.70;;;;;;5096065;27;20048;-84
2021/10/14 06:11:32;;;;;;;1.45;0.40;;;13.10;96.70;;;;;;5117557;27;20035;-83
2021/10/14 06:14:00;;;;;;;2.78;0.60;;;13.10;96.70;;;;;;5122144;27;20104;-83
2021/10/14 06:16:30;;;;;;;2.70;0.40;;;13.10;96.70;;;;;;5078589;28;20493;-84
2021/10/14 06:18:58;;;;;;;1.00;0.40;;;13.10;96.70;;;;;;5086072;27;20049;-83
2021/10/14 06:21:26;;;;;;;1.42;0.60;;;13.20;96.70;;;;;;5083416;27;20078;-90
2021/10/14 06:23:55;;;;;;;3.42;0.75;;;13.20;96.70;;;;;;5097247;28;20043;-90
2021/10/14 06:26:23;;;;;;;3.75;0.70;;;13.30;96.70;;;;;;5113445;27;20040;-81
2021/10/14 06:28:51;;;;;;;3.35;0.80;;;13.30;96.70;;;;;;5089563;27;20059;-82
2021/10/14 06:31:20;;;;;;;3.35;0.93;;;13.40;96.70;;;;;;5089078;27;20039;-81
2021/10/14 06:33:49;;;;;;;3.97;0.70;;;13.30;96.70;;;;;;5081471;27;20138;-83
2021/10/14 06:36:18;;;;;;;4.43;0.93;;;13.40;96.70;;;;;;5081957;27;20089;-86
2021/10/14 06:38:46;;;;;;;2.38;0.68;;;13.40;96.70;;;;;;5094587;28;20047;-81
2021/10/14 06:41:15;;;;;;;2.63;0.75;;;13.40;96.70;;;;;;5084159;27;20612;-82
2021/10/14 06:43:43;;;;;;;4.43;1.13;;;13.40;96.70;;;;;;5088182;27;20040;-80
2021/10/14 06:46:11;;;;;;;5.72;1.65;;;13.50;96.70;;;;;;5077739;27;20118;-81
2021/10/14 06:48:40;;;;;;;3.83;1.27;;;13.50;96.70;;;;;;5095295;28;20039;-81
2021/10/14 06:51:09;;;;;;;4.00;1.10;;;13.50;96.70;;;;;;5074062;28;20040;-84
2021/10/14 06:53:37;;;;;;;3.03;0.73;;;13.60;96.70;;;;;;5092831;27;20046;-83
2021/10/14 06:56:05;;;;;;;3.45;0.93;;;13.70;96.70;;;;;;5091476;28;20522;-84
2021/10/14 06:58:33;;;;;;;4.05;0.90;;;13.70;96.70;;;;;;5081686;27;20044;-84
2021/10/14 07:01:01;;;;;;;9.85;1.77;;;13.80;96.70;;;;;;5084186;27;20061;-85
2021/10/14 07:03:35;;;;;;;1.50;0.45;;;13.80;96.70;;;;;;5087295;27;20120;-84
2021/10/14 07:06:04;;;;;;;1.70;0.50;;;13.90;96.70;;;;;;5088594;28;20493;-83
2021/10/14 07:08:34;;;;;;;1.85;0.30;;;13.90;96.70;;;;;;5091609;27;20035;-83
2021/10/14 07:11:02;;;;;;;3.72;0.60;;;13.90;96.70;;;;;;5091576;28;20043;-85
2021/10/14 07:13:30;;;;;;;2.45;0.50;;;14.00;96.70;;;;;;5114451;27;20142;-85
2021/10/14 07:15:59;;;;;;;2.95;0.43;;;14.10;96.70;;;;;;5089772;28;20582;-86
2021/10/14 07:18:27;;;;;;;1.13;0.40;;;14.10;96.70;;;;;;5096691;27;20046;-84
2021/10/14 07:20:55;;;;;;;1.98;0.40;;;14.20;96.70;;;;;;5114766;27;20031;-84
2021/10/14 07:23:23;;;;;;;2.92;0.40;;;14.20;96.70;;;;;;5111973;27;20046;-84
2021/10/14 07:25:53;;;;;;;1.20;0.43;;;14.20;96.70;;;;;;5088559;28;20551;-85
2021/10/14 07:28:21;;;;;;;2.60;0.50;;;14.30;96.50;;;;;;5092208;27;20130;-85
2021/10/14 07:30:52;;;;;;;1.00;0.30;;;14.30;96.50;;;;;;5093411;28;20044;-85
2021/10/14 07:33:20;;;;;;;2.58;0.52;;;14.30;96.70;;;;;;5093861;28;20650;-85
2021/10/14 07:35:48;;;;;;;1.00;0.50;;;14.40;96.70;;;;;;5087680;27;20035;-83
2021/10/14 07:38:16;;;;;;;1.95;0.70;;;14.40;96.70;;;;;;5091581;28;20063;-82
2021/10/14 07:40:44;;;;;;;3.05;0.60;;;14.50;96.20;;;;;;5097011;27;20039;-84
2021/10/14 07:43:15;;;;;;;0.60;0.38;;;14.50;95.70;;;;;;5078850;27;20135;-83
2021/10/14 07:45:44;;;;;;;3.83;0.65;;;14.50;95.70;;;;;;5096194;27;20130;-85
2021/10/14 07:48:13;;;;;;;2.03;0.80;;;14.60;96.10;;;;;;5083285;27;20040;-83
2021/10/14 07:50:41;;;;;;;2.15;0.57;;;14.60;96.50;;;;;;5087747;27;20035;-84
2021/10/14 07:53:11;;;;;;;1.95;0.40;;;14.60;96.20;;;;;;5102169;28;20027;-84
2021/10/14 07:55:40;;;;;;;1.95;0.85;;;14.70;96.10;;;;;;5088359;28;20066;-86
2021/10/14 07:58:08;;;;;;;2.22;0.68;;;14.70;96.60;;;;;;5095062;28;20055;-87
2021/10/14 08:00:39;;;;;;;1.20;0.65;;;14.80;96.50;;;;;;5090978;28;20039;-85
2021/10/14 08:03:08;;;;;;;2.20;0.57;;;14.80;96.30;;;;;;5078076;27;20043;-86
2021/10/14 08:05:37;;;;;;;1.20;0.60;;;14.90;96.50;;;;;;5090489;27;20043;-88
2021/10/14 08:08:05;;;;;;;0.77;0.50;;;14.90;96.20;;;;;;5100993;27;20039;-88
2021/10/14 08:10:34;;;;;;;2.30;0.57;;;15.00;96.00;;;;;;5097811;28;20130;-86
2021/10/14 08:13:04;;;;;;;1.02;0.55;;;15.00;96.20;;;;;;5101297;27;20138;-87
2021/10/14 08:15:32;;;;;;;1.80;0.50;;;15.10;95.70;;;;;;5095240;27;20039;-86
2021/10/14 08:18:02;;;;;;;2.28;0.70;;;15.10;95.40;;;;;;5076635;28;20053;-87
2021/10/14 08:20:32;;;;;;;1.17;0.50;;;15.20;94.80;;;;;;5080295;28;20040;-85
2021/10/14 08:23:01;;;;;;;2.60;0.70;;;15.20;95.00;;;;;;5106819;28;20039;-86
2021/10/14 08:25:29;;;;;;;2.42;0.40;;;15.30;94.60;;;;;;5089144;28;20162;-88
2021/10/14 08:27:57;;;;;;;1.58;0.60;;;15.30;94.10;;;;;;5097755;28;20277;-88
2021/10/14 08:30:25;;;;;;;2.33;0.52;;;15.30;93.60;;;;;;5094199;28;20043;-87
2021/10/14 08:32:54;;;;;;;2.40;0.52;;;15.30;93.70;;;;;;5085889;28;20121;-86
2021/10/14 08:35:24;;;;;;;2.40;0.40;;;15.40;93.70;;;;;;5096636;28;20051;-87
2021/10/14 08:37:52;;;;;;;3.33;0.60;;;15.40;93.40;;;;;;5092490;28;20035;-86
2021/10/14 08:40:20;;;;;;;2.45;0.60;;;15.40;93.70;;;;;;5096086;28;20162;-86
2021/10/14 08:42:48;;;;;;;3.10;0.60;;;15.50;93.90;;;;;;5100971;28;20051;-87
2021/10/14 08:45:17;;;;;;;2.97;0.60;;;15.60;94.00;;;;;;5081997;28;20064;-85
2021/10/14 08:47:45;;;;;;;2.22;0.82;;;15.70;93.50;;;;;;5093372;28;20054;-86
2021/10/14 08:50:13;;;;;;;3.90;0.60;;;15.80;93.30;;;;;;5094185;28;20063;-87
2021/10/14 08:52:43;;;;;;;0.98;0.60;;;15.70;93.30;;;;;;5087950;28;20044;-87
2021/10/14 08:55:11;;;;;;;4.97;0.60;;;15.70;93.00;;;;;;5083792;28;20056;-87
2021/10/14 08:57:40;;;;;;;0.90;0.50;;;15.80;93.50;;;;;;5089531;28;20126;-87
2021/10/14 09:00:10;;;;;;;2.17;0.60;;;15.80;93.30;;;;;;5121929;27;20557;-87
2021/10/14 09:02:39;;;;;;;1.65;0.80;;;16.00;93.70;;;;;;5101985;27;20601;-87
2021/10/14 09:05:10;;;;;;;1.55;0.50;;;16.10;93.90;;;;;;5098273;27;20143;-87
2021/10/14 09:07:39;;;;;;;2.42;0.80;;;16.10;93.30;;;;;;5102262;27;20028;-87
2021/10/14 09:10:12;;;;;;;3.22;0.43;;;16.00;93.00;;;;;;5088764;27;20043;-87
2021/10/14 09:12:42;;;;;;;0.98;0.45;;;15.90;92.70;;;;;;5088571;27;20445;-88
2021/10/14 09:15:11;;;;;;;1.60;0.30;;;15.90;92.80;;;;;;5081268;28;20050;-87
2021/10/14 09:17:48;;;;;;;3.42;0.40;;;15.90;92.80;;;;;;5086776;27;20039;-87
2021/10/14 09:20:28;;;;;;;3.35;0.95;;;16.00;92.80;;;;;;5079669;28;20039;-87
2021/10/14 09:22:58;;;;;;;2.13;0.50;;;16.10;93.00;;;;;;5089302;27;20049;-88
2021/10/14 09:25:34;;;;;;;1.58;0.50;;;16.10;91.60;;;;;;5096285;27;20129;-86
2021/10/14 09:28:15;;;;;;;1.60;0.50;;;16.20;91.80;;;;;;5084837;27;20055;-87
2021/10/14 09:30:53;;;;;;;2.13;0.60;;;16.30;91.00;;;;;;5096386;27;20039;-87
2021/10/14 09:33:35;;;;;;;1.38;0.70;;;16.50;91.00;;;;;;5100915;28;20313;-85
2021/10/14 09:36:11;;;;;;;2.15;0.60;;;16.70;91.00;;;;;;5083462;28;20046;-89
2021/10/14 09:38:40;;;;;;;0.80;0.47;;;16.80;90.20;;;;;;5086277;27;20587;-87
2021/10/14 09:41:11;;;;;;;0.80;0.30;;;16.80;90.40;;;;;;5088078;28;20047;-87
2021/10/14 09:43:41;;;;;;;4.63;0.80;;;16.90;90.40;;;;;;5102677;27;20046;-88
2021/10/14 09:46:10;;;;;;;1.20;0.40;;;17.00;89.80;;;;;;5116126;27;20036;-86
2021/10/14 09:48:47;;;;;;;3.67;0.60;;;17.10;89.80;;;;;;5116685;27;20097;-86
2021/10/14 09:51:15;;;;;;;1.67;0.38;;;17.10;89.50;;;;;;5096228;27;20054;-87
2021/10/14 09:53:43;;;;;;;2.95;0.50;;;17.20;88.90;;;;;;5096811;27;20487;-88
2021/10/14 09:56:13;;;;;;;2.95;0.60;;;17.20;89.40;;;;;;5097097;28;20062;-86
2021/10/14 09:58:41;;;;;;;1.27;0.32;;;17.30;89.10;;;;;;5092393;28;20232;-88
2021/10/14 10:01:09;;;;;;;1.88;0.50;;;17.40;88.60;;;;;;5087325;28;20059;-87
2021/10/14 10:03:40;;;;;;;2.15;0.50;;;17.50;88.50;;;;;;5097300;28;20546;-86
2021/10/14 10:06:09;;;;;;;0.95;0.40;;;17.60;88.40;;;;;;5089396;28;20516;-86
2021/10/14 10:08:41;;;;;;;1.85;0.47;;;17.60;88.60;;;;;;5088635;28;20044;-87
2021/10/14 10:11:17;;;;;;;0.80;0.40;;;17.70;89.30;;;;;;5100886;28;20036;-86
2021/10/14 10:13:52;;;;;;;2.67;0.60;;;17.70;88.80;;;;;;5097102;28;20029;-84
2021/10/14 10:16:22;;;;;;;2.30;0.50;;;17.80;88.10;;;;;;5094811;28;20456;-83
2021/10/14 10:18:51;;;;;;;2.28;0.57;;;17.80;88.30;;;;;;5070738;28;20044;-84
2021/10/14 10:21:42;;;;;;;1.75;0.38;;;17.90;88.40;;;;;;5093166;28;20036;-84
2021/10/14 10:24:31;;;;;;;1.13;0.43;;;18.00;88.70;;;;;;5094589;28;20056;-85
2021/10/14 10:27:02;;;;;;;1.75;0.50;;;18.00;88.10;;;;;;5086254;28;20093;-85
2021/10/14 10:29:47;;;;;;;1.35;0.40;;;17.80;87.00;;;;;;5079923;28;20401;-84
2021/10/14 10:32:21;;;;;;;0.70;0.38;;;17.90;87.20;;;;;;5093391;28;20449;-84
2021/10/14 10:35:04;;;;;;;0.85;0.40;;;17.80;86.20;;;;;;5093837;28;20468;-83
2021/10/14 10:40:16;;;;;;;1.70;0.40;;;18.00;85.10;;;;;;5089713;28;20039;-83
2021/10/14 10:42:50;;;;;;;0.73;0.40;;;18.10;86.20;;;;;;5093624;28;20096;-86
2021/10/14 10:45:22;;;;;;;1.58;0.50;;;18.00;86.00;;;;;;5092124;28;20067;-88
2021/10/14 10:47:57;;;;;;;1.33;0.60;;;18.00;86.10;;;;;;5075997;28;20055;-80
2021/10/14 10:50:41;;;;;;;1.95;0.40;;;18.10;86.20;;;;;;5091012;28;20119;-84
2021/10/14 10:53:10;;;;;;;2.13;0.47;;;18.20;86.20;;;;;;5078843;28;20073;-84
2021/10/14 10:55:41;;;;;;;0.93;0.30;;;18.30;85.20;;;;;;5090598;28;20052;-84
2021/10/14 10:58:13;;;;;;;0.73;0.40;;;18.20;84.80;;;;;;5086770;28;20093;-83
2021/10/14 11:00:43;;;;;;;3.75;0.45;;;18.30;84.40;;;;;;5093678;28;20028;-81
2021/10/14 11:03:16;;;;;;;1.20;0.50;;;18.40;84.10;;;;;;5099571;28;20126;-82
2021/10/14 11:05:48;;;;;;;1.83;0.40;;;18.30;84.40;;;;;;5090454;28;20114;-85
2021/10/14 11:08:20;;;;;;;1.48;0.30;;;18.30;84.60;;;;;;5100036;28;20052;-85
2021/10/14 11:10:51;;;;;;;1.08;0.30;;;18.30;84.10;;;;;;5096114;28;20070;-85
2021/10/14 11:13:22;;;;;;;5.97;0.90;;;18.30;84.40;;;;;;5090899;28;20042;-83
2021/10/14 11:16:02;;;;;;;0.30;0.20;;;18.50;84.60;;;;;;5087874;28;20105;-85
2021/10/14 11:18:31;;;;;;;1.75;0.30;;;18.40;83.90;;;;;;5086817;28;20205;-83
2021/10/14 11:21:01;;;;;;;0.90;0.40;;;18.50;84.00;;;;;;5088922;28;20032;-83
2021/10/14 11:23:30;;;;;;;0.90;0.20;;;18.60;83.80;;;;;;5087705;28;20036;-81
2021/10/14 11:26:08;;;;;;;1.73;0.68;;;18.60;83.70;;;;;;5087350;28;20143;-84
2021/10/14 11:28:53;;;;;;;2.47;0.40;;;18.70;84.00;;;;;;5079220;28;20035;-87
2021/10/14 11:31:24;;;;;;;1.35;0.50;;;18.60;83.40;;;;;;5073111;28;20115;-86
2021/10/14 11:33:52;;;;;;;2.22;0.40;;;18.60;83.60;;;;;;5084756;28;20135;-93
2021/10/14 11:36:21;;;;;;;1.40;0.30;;;18.70;83.60;;;;;;5089646;28;20039;-91
2021/10/14 11:38:57;;;;;;;1.65;0.60;;;18.80;83.40;;;;;;5093713;28;20064;-90
2021/10/14 11:41:26;;;;;;;3.72;0.43;;;18.80;83.10;;;;;;5082672;28;20044;-90
2021/10/14 11:43:58;;;;;;;2.28;0.40;;;19.00;83.70;;;;;;5082295;28;20039;-89
2021/10/14 11:46:28;;;;;;;1.70;0.68;;;19.00;83.00;;;;;;5092686;28;20093;-91
2021/10/14 11:48:59;;;;;;;2.28;0.70;;;18.90;82.20;;;;;;5089056;28;20044;-86
2021/10/14 11:51:30;;;;;;;1.10;0.50;;;19.00;83.00;;;;;;5089734;28;20046;-86
2021/10/14 11:54:04;;;;;;;1.40;0.40;;;19.10;82.10;;;;;;5081839;28;20044;-87
2021/10/14 11:56:40;;;;;;;0.85;0.50;;;19.20;81.90;;;;;;5067571;28;20048;-87
2021/10/14 11:59:10;;;;;;;1.50;0.40;;;19.20;81.60;;;;;;5099053;28;20052;-86
2021/10/14 12:01:49;;;;;;;1.20;0.60;;;19.40;81.50;;;;;;5090817;28;20054;-86
2021/10/14 12:04:22;;;;;;;0.70;0.40;;;19.50;81.50;;;;;;5088866;28;20048;-86
2021/10/14 12:06:52;;;;;;;1.67;0.32;;;19.60;81.30;;;;;;5088325;28;20036;-85
2021/10/14 12:09:39;;;;;;;1.38;0.52;;;19.70;80.50;;;;;;5076142;28;20040;-86
2021/10/14 12:12:08;;;;;;;0.80;0.43;;;19.70;80.90;;;;;;5092780;28;20123;-86
2021/10/14 12:14:38;;;;;;;2.42;0.40;;;19.70;80.90;;;;;;5079602;28;20054;-84
2021/10/14 12:17:11;;;;;;;1.02;0.50;;;19.80;80.90;;;;;;5087909;28;20044;-83
2021/10/14 12:19:43;;;;;;;1.63;0.40;;;19.80;81.20;;;;;;5082755;28;20067;-80
2021/10/14 12:22:13;;;;;;;0.50;0.30;;;19.90;80.70;;;;;;5081951;28;20403;-80
2021/10/14 12:24:57;;;;;;;0.57;0.30;;;19.90;79.80;;;;;;5085009;28;20077;-82
2021/10/14 12:27:41;;;;;;;0.68;0.50;;;20.00;80.50;;;;;;5097961;28;20048;-84
2021/10/14 12:30:23;;;;;;;1.75;0.47;;;20.20;80.20;;;;;;5095588;28;20036;-86
2021/10/14 12:32:53;;;;;;;0.55;0.35;;;20.10;80.50;;;;;;5097933;28;20044;-88
2021/10/14 12:35:26;;;;;;;3.00;0.28;;;20.10;79.60;;;;;;5083772;28;20069;-86
2021/10/14 12:38:09;;;;;;;0.57;0.20;;;20.00;79.70;;;;;;5076334;28;20044;-86
2021/10/14 12:40:46;;;;;;;2.55;0.50;;;20.00;79.80;;;;;;5082043;28;20048;-86
2021/10/14 12:43:20;;;;;;;1.27;0.40;;;20.20;79.70;;;;;;5087522;28;20048;-82
2021/10/14 12:51:08;;;;;;;2.05;0.30;;;20.20;78.70;;;;;;5097709;28;20587;-91
2021/10/14 12:53:43;;;;;;;3.60;0.55;;;20.20;79.60;;;;;;5090042;28;20044;-86
2021/10/14 12:56:12;;;;;;;1.45;0.43;;;20.20;79.00;;;;;;5103247;27;20052;-83
2021/10/14 12:58:43;;;;;;;2.13;0.50;;;20.20;78.80;;;;;;5088471;28;20047;-85
2021/10/14 13:01:16;;;;;;;0.77;0.45;;;20.20;78.90;;;;;;5090888;28;20052;-87
2021/10/14 13:03:45;;;;;;;0.68;0.30;;;20.20;79.00;;;;;;5091224;27;20043;-87
2021/10/14 13:06:13;;;;;;;1.45;0.55;;;20.10;79.10;;;;;;5096499;27;20049;-86
2021/10/14 13:08:46;;;;;;;2.28;0.50;;;20.20;79.00;;;;;;5103305;27;20116;-86
2021/10/14 13:11:15;;;;;;;1.17;0.40;;;20.30;79.00;;;;;;5107535;27;20040;-85